createdAt,value
2022-10-21T00:00:54.985Z,13.20
2022-10-21T00:03:23.583Z,12.27
2022-10-21T00:05:51.667Z,12.98
2022-10-21T00:08:19.973Z,13.27
2022-10-21T00:10:54.519Z,12.90
2022-10-21T00:13:23.008Z,12.60
2022-10-21T00:16:04.009Z,12.85
2022-10-21T00:18:33.680Z,12.48
2022-10-21T00:21:01.042Z,13.15
2022-10-21T00:23:27.835Z,13.60
2022-10-21T00:25:58.930Z,13.38
2022-10-21T00:28:27.275Z,12.82
2022-10-21T00:30:54.664Z,13.38
2022-10-21T00:33:21.955Z,13.27
2022-10-21T00:36:08.154Z,12.85
2022-10-21T00:38:35.943Z,13.25
2022-10-21T00:41:03.029Z,13.40
2022-10-21T00:43:30.265Z,13.50
2022-10-21T00:46:07.370Z,13.80
2022-10-21T00:48:41.678Z,13.38
2022-10-21T00:51:16.544Z,14.05
2022-10-21T00:53:47.851Z,13.13
2022-10-21T00:56:26.604Z,14.07
2022-10-21T00:58:57.608Z,13.05
2022-10-21T01:01:24.895Z,12.82
2022-10-21T01:03:51.783Z,13.27
2022-10-21T01:06:23.977Z,13.23
2022-10-21T01:08:54.358Z,12.40
2022-10-21T01:11:24.114Z,12.77
2022-10-21T01:14:01.423Z,11.73
2022-10-21T01:17:20.787Z,11.93
2022-10-21T01:20:21.363Z,10.85
2022-10-21T01:23:44.543Z,10.95
2022-10-21T01:26:31.778Z,10.15
2022-10-21T01:29:30.663Z,10.45
2022-10-21T01:32:40.302Z,10.45
2022-10-21T01:35:25.083Z,11.27
2022-10-21T01:38:29.395Z,11.13
2022-10-21T01:41:33.950Z,11.25
2022-10-21T01:44:50.726Z,10.88
2022-10-21T01:47:43.438Z,10.95
2022-10-21T01:50:16.873Z,12.10
2022-10-21T01:52:49.596Z,11.00
2022-10-21T01:55:22.377Z,11.38
2022-10-21T01:58:04.040Z,11.52
2022-10-21T02:00:33.349Z,13.27
2022-10-21T02:03:07.599Z,12.90
2022-10-21T02:05:36.174Z,11.93
2022-10-21T02:08:04.196Z,12.25
2022-10-21T02:10:38.775Z,12.63
2022-10-21T02:13:10.837Z,12.55
2022-10-21T02:15:39.308Z,12.48
2022-10-21T02:18:09.740Z,13.35
2022-10-21T02:20:45.055Z,13.63
2022-10-21T02:23:21.059Z,12.48
2022-10-21T02:25:51.248Z,12.30
2022-10-21T02:28:20.618Z,13.93
2022-10-21T02:31:21.959Z,13.18
2022-10-21T02:34:13.988Z,12.75
2022-10-21T02:36:58.053Z,12.70
2022-10-21T02:39:33.859Z,13.77
2022-10-21T02:42:05.365Z,13.20
2022-10-21T02:44:32.138Z,13.45
2022-10-21T02:46:58.980Z,12.57
2022-10-21T02:49:25.766Z,12.60
2022-10-21T02:51:52.602Z,13.15
2022-10-21T02:54:19.403Z,12.75
2022-10-21T02:56:46.128Z,13.05
2022-10-21T02:59:13.264Z,13.20
2022-10-21T03:01:40.037Z,13.30
2022-10-21T03:04:06.771Z,12.82
2022-10-21T03:06:33.533Z,12.80
2022-10-21T03:09:00.330Z,13.48
2022-10-21T03:11:27.100Z,12.85
2022-10-21T03:13:53.943Z,11.82
2022-10-21T03:16:20.679Z,12.88
2022-10-21T03:18:47.389Z,12.57
2022-10-21T03:21:14.125Z,12.15
2022-10-21T03:23:40.848Z,12.38
2022-10-21T03:26:07.663Z,12.88
2022-10-21T03:28:34.394Z,11.98
2022-10-21T03:31:01.115Z,12.50
2022-10-21T03:33:27.855Z,12.00
2022-10-21T03:35:54.648Z,12.63
2022-10-21T03:38:21.363Z,12.65
2022-10-21T03:40:50.108Z,12.30
2022-10-21T03:43:17.223Z,13.65
2022-10-21T03:45:43.985Z,12.38
2022-10-21T03:48:12.090Z,11.60
2022-10-21T03:50:38.840Z,12.93
2022-10-21T03:53:13.727Z,11.63
2022-10-21T03:55:56.504Z,11.88
2022-10-21T03:58:25.165Z,11.55
2022-10-21T04:00:53.227Z,10.90
2022-10-21T04:03:20.307Z,11.00
2022-10-21T04:05:47.375Z,10.98
2022-10-21T04:08:14.129Z,10.88
2022-10-21T04:10:40.936Z,11.45
2022-10-21T04:13:07.794Z,11.52
2022-10-21T04:15:34.507Z,11.27
2022-10-21T04:18:01.291Z,9.38
2022-10-21T04:20:28.395Z,10.52
2022-10-21T04:22:55.123Z,10.75
2022-10-21T04:25:21.901Z,10.18
2022-10-21T04:27:48.677Z,10.18
2022-10-21T04:30:15.748Z,10.80
2022-10-21T04:32:43.048Z,10.95
2022-10-21T04:35:09.813Z,11.35
2022-10-21T04:37:39.936Z,11.50
2022-10-21T04:40:09.156Z,12.43
2022-10-21T04:42:35.921Z,11.73
2022-10-21T04:45:02.819Z,11.82
2022-10-21T04:47:29.688Z,12.13
2022-10-21T04:49:56.425Z,12.32
2022-10-21T04:52:23.205Z,12.13
2022-10-21T04:54:49.948Z,12.00
2022-10-21T04:57:16.704Z,10.95
2022-10-21T04:59:43.431Z,12.38
2022-10-21T05:02:10.147Z,11.60
2022-10-21T05:04:36.912Z,11.45
2022-10-21T05:07:03.669Z,10.70
2022-10-21T05:09:30.556Z,10.52
2022-10-21T05:11:57.317Z,11.25
2022-10-21T05:14:24.100Z,11.45
2022-10-21T05:16:51.030Z,11.45
2022-10-21T05:19:17.869Z,11.40
2022-10-21T05:21:46.557Z,11.23
2022-10-21T05:24:14.961Z,11.13
2022-10-21T05:26:41.705Z,10.75
2022-10-21T05:29:08.707Z,9.95
2022-10-21T05:31:35.890Z,11.15
2022-10-21T05:34:02.720Z,10.82
2022-10-21T05:36:29.648Z,10.77
2022-10-21T05:38:56.426Z,10.88
2022-10-21T05:41:23.144Z,10.15
2022-10-21T05:43:49.943Z,9.77
2022-10-21T05:46:16.760Z,9.55
2022-10-21T05:48:43.540Z,9.88
2022-10-21T05:51:10.428Z,9.73
2022-10-21T05:53:37.240Z,10.00
2022-10-21T05:56:07.684Z,9.90
2022-10-21T05:58:36.013Z,9.77
2022-10-21T06:01:03.069Z,9.65
2022-10-21T06:03:32.919Z,9.05
2022-10-21T06:06:04.494Z,9.55
2022-10-21T06:08:33.465Z,9.93
2022-10-21T06:11:08.376Z,9.38
2022-10-21T06:13:35.708Z,9.57
2022-10-21T06:18:30.764Z,9.30
2022-10-21T06:20:57.740Z,8.82
2022-10-21T06:23:24.624Z,9.90
2022-10-21T06:26:12.321Z,9.25
2022-10-21T06:28:42.212Z,9.35
2022-10-21T06:31:14.043Z,9.52
2022-10-21T06:33:41.401Z,9.10
2022-10-21T06:36:08.536Z,8.40
2022-10-21T06:38:36.893Z,9.10
2022-10-21T06:41:13.196Z,7.82
2022-10-21T06:43:41.908Z,8.63
2022-10-21T06:46:12.776Z,8.18
2022-10-21T06:48:39.927Z,9.02
2022-10-21T06:51:11.887Z,9.10
2022-10-21T06:53:39.519Z,8.25
2022-10-21T06:56:14.436Z,8.40
2022-10-21T06:58:46.349Z,8.10
2022-10-21T07:01:33.390Z,8.88
2022-10-21T07:04:03.471Z,8.85
2022-10-21T07:06:30.845Z,10.13
2022-10-21T07:08:58.890Z,9.70
2022-10-21T07:11:27.758Z,9.27
2022-10-21T07:13:54.951Z,9.40
2022-10-21T07:16:28.784Z,9.30
2022-10-21T07:18:56.291Z,9.38
2022-10-21T07:21:26.241Z,8.68
2022-10-21T07:23:56.720Z,9.07
2022-10-21T07:26:30.201Z,8.30
2022-10-21T07:28:59.495Z,8.35
2022-10-21T07:31:28.595Z,8.63
2022-10-21T07:33:55.918Z,8.55
2022-10-21T07:36:27.383Z,9.45
2022-10-21T07:38:58.683Z,8.68
2022-10-21T07:41:35.628Z,8.55
2022-10-21T07:44:02.601Z,8.20
2022-10-21T07:46:29.841Z,9.27
2022-10-21T07:48:57.186Z,9.43
2022-10-21T07:51:28.614Z,8.65
2022-10-21T07:53:59.269Z,9.38
2022-10-21T07:56:31.671Z,8.57
2022-10-21T07:58:58.965Z,8.98
2022-10-21T08:01:25.990Z,9.38
2022-10-21T08:03:55.392Z,9.93
2022-10-21T08:06:24.377Z,9.32
2022-10-21T08:08:51.243Z,9.90
2022-10-21T08:11:27.654Z,8.93
2022-10-21T08:13:55.524Z,9.95
2022-10-21T08:16:23.247Z,9.50
2022-10-21T08:18:50.663Z,9.25
2022-10-21T08:21:17.860Z,8.18
2022-10-21T08:23:45.395Z,8.55
2022-10-21T08:26:15.629Z,8.73
2022-10-21T08:28:43.846Z,8.00
2022-10-21T08:31:17.627Z,8.55
2022-10-21T08:33:45.258Z,8.00
2022-10-21T08:36:21.733Z,8.82
2022-10-21T08:38:49.328Z,9.40
2022-10-21T08:41:42.525Z,8.55
2022-10-21T08:44:25.436Z,8.45
2022-10-21T08:47:25.740Z,8.02
2022-10-21T08:50:03.697Z,7.78
2022-10-21T08:52:59.568Z,7.68
2022-10-21T08:55:36.397Z,8.63
2022-10-21T08:58:04.392Z,7.97
2022-10-21T09:00:57.145Z,8.10
2022-10-21T09:03:47.966Z,8.45
2022-10-21T09:06:27.985Z,8.40
2022-10-21T09:09:15.883Z,8.73
2022-10-21T09:12:30.090Z,8.07
2022-10-21T09:15:46.359Z,7.85
2022-10-21T09:18:47.654Z,8.32
2022-10-21T09:21:48.823Z,7.78
2022-10-21T09:24:42.633Z,7.53
2022-10-21T09:27:10.827Z,7.88
2022-10-21T09:29:43.751Z,7.72
2022-10-21T09:32:23.532Z,7.53
2022-10-21T09:35:15.355Z,7.32
2022-10-21T09:37:48.840Z,7.60
2022-10-21T09:40:24.260Z,7.72
2022-10-21T09:42:58.862Z,7.35
2022-10-21T09:45:37.591Z,7.20
2022-10-21T09:48:19.869Z,7.35
2022-10-21T09:51:03.792Z,7.15
2022-10-21T09:53:54.314Z,7.25
2022-10-21T09:56:28.811Z,6.60
2022-10-21T09:59:12.799Z,7.85
2022-10-21T10:01:42.648Z,6.97
2022-10-21T10:04:32.666Z,6.85
2022-10-21T10:07:35.073Z,6.68
2022-10-21T10:10:24.623Z,6.63
2022-10-21T10:12:59.634Z,7.00
2022-10-21T10:15:36.725Z,6.38
2022-10-21T10:18:04.491Z,6.38
2022-10-21T10:20:31.240Z,6.50
2022-10-21T10:23:00.998Z,6.78
2022-10-21T10:25:39.583Z,6.18
2022-10-21T10:28:09.181Z,6.00
2022-10-21T10:30:50.795Z,6.10
2022-10-21T10:33:27.930Z,5.70
2022-10-21T10:35:57.855Z,6.18
2022-10-21T10:38:36.096Z,6.53
2022-10-21T10:41:16.882Z,5.43
2022-10-21T10:43:54.072Z,5.18
2022-10-21T10:46:26.831Z,5.10
2022-10-21T10:48:56.816Z,5.20
2022-10-21T10:51:34.887Z,5.38
2022-10-21T10:54:21.532Z,5.32
2022-10-21T10:57:20.437Z,5.10
2022-10-21T11:00:18.723Z,5.70
2022-10-21T11:03:03.297Z,4.85
2022-10-21T11:05:43.959Z,4.50
2022-10-21T11:08:33.261Z,5.22
2022-10-21T11:11:07.103Z,4.40
2022-10-21T11:13:37.887Z,4.60
2022-10-21T11:16:45.054Z,4.53
2022-10-21T11:19:44.768Z,4.90
2022-10-21T11:22:26.951Z,4.20
2022-10-21T11:25:25.197Z,4.07
2022-10-21T11:28:10.271Z,4.00
2022-10-21T11:31:20.614Z,4.25
2022-10-21T11:33:59.191Z,3.75
2022-10-21T11:37:01.516Z,3.92
2022-10-21T11:39:50.947Z,3.35
2022-10-21T11:42:36.081Z,3.78
2022-10-21T11:45:33.127Z,3.17
2022-10-21T11:48:47.399Z,2.88
2022-10-21T11:51:35.632Z,2.42
2022-10-21T11:55:03.900Z,2.47
2022-10-21T11:58:05.033Z,2.90
2022-10-21T12:00:48.923Z,2.70
2022-10-21T12:04:12.211Z,2.45
2022-10-21T12:07:07.735Z,2.45
2022-10-21T12:09:43.483Z,2.22
2022-10-21T12:12:16.778Z,2.55
2022-10-21T12:15:02.436Z,2.13
2022-10-21T12:17:34.563Z,2.70
2022-10-21T12:20:15.792Z,2.60
2022-10-21T12:22:43.479Z,2.40
2022-10-21T12:25:12.963Z,2.25
2022-10-21T12:28:36.324Z,2.30
2022-10-21T12:31:37.353Z,2.10
2022-10-21T12:34:05.951Z,2.55
2022-10-21T12:36:37.123Z,2.10
2022-10-21T12:39:17.956Z,2.67
2022-10-21T12:41:47.835Z,2.50
2022-10-21T12:44:27.841Z,2.78
2022-10-21T12:47:19.615Z,2.30
2022-10-21T12:49:46.685Z,2.67
2022-10-21T12:52:24.197Z,2.42
2022-10-21T12:55:02.832Z,3.15
2022-10-21T12:57:38.467Z,3.35
2022-10-21T13:00:28.641Z,2.80
2022-10-21T13:03:21.612Z,2.72
2022-10-21T13:05:49.859Z,2.55
2022-10-21T13:08:27.416Z,2.78
2022-10-21T13:11:03.473Z,2.97
2022-10-21T13:14:18.139Z,3.03
2022-10-21T13:16:45.170Z,3.30
2022-10-21T13:19:17.972Z,3.00
2022-10-21T13:21:48.429Z,3.13
2022-10-21T13:24:33.961Z,3.08
2022-10-21T13:27:05.472Z,2.72
2022-10-21T13:29:38.436Z,2.83
2022-10-21T13:32:13.923Z,2.78
2022-10-21T13:34:59.747Z,2.92
2022-10-21T13:37:35.959Z,3.00
2022-10-21T13:40:19.148Z,2.60
2022-10-21T13:42:58.040Z,3.10
2022-10-21T13:45:39.079Z,2.65
2022-10-21T13:48:18.032Z,2.55
2022-10-21T13:50:49.349Z,2.40
2022-10-21T13:53:25.450Z,2.35
2022-10-21T13:56:07.673Z,2.40
2022-10-21T13:58:39.592Z,2.72
2022-10-21T14:01:20.058Z,2.45
2022-10-21T14:06:32.124Z,2.33
2022-10-21T14:09:01.995Z,2.55
2022-10-21T14:11:41.556Z,2.38
2022-10-21T14:14:14.523Z,2.13
2022-10-21T14:16:48.591Z,2.17
2022-10-21T14:19:22.038Z,1.70
2022-10-21T14:21:53.642Z,1.95
2022-10-21T14:24:41.612Z,1.92
2022-10-21T14:27:25.516Z,1.88
2022-10-21T14:29:53.142Z,1.50
2022-10-21T14:32:23.388Z,1.70
2022-10-21T14:35:16.517Z,1.42
2022-10-21T14:37:45.872Z,1.35
2022-10-21T14:40:36.935Z,1.42
2022-10-21T14:43:12.875Z,1.50
2022-10-21T14:45:47.701Z,1.80
2022-10-21T14:48:34.291Z,1.95
2022-10-21T14:51:21.180Z,1.65
2022-10-21T14:53:59.911Z,1.50
2022-10-21T14:56:38.424Z,1.63
2022-10-21T14:59:40.788Z,1.33
2022-10-21T15:02:23.573Z,1.60
2022-10-21T15:04:58.593Z,1.52
2022-10-21T15:07:39.107Z,1.70
2022-10-21T15:10:06.008Z,1.70
2022-10-21T15:12:46.164Z,1.30
2022-10-21T15:15:41.230Z,1.40
2022-10-21T15:18:23.111Z,1.38
2022-10-21T15:21:15.010Z,1.50
2022-10-21T15:23:53.454Z,1.45
2022-10-21T15:26:34.016Z,1.52
2022-10-21T15:29:12.357Z,1.63
2022-10-21T15:31:39.974Z,2.00
2022-10-21T15:34:13.879Z,1.67
2022-10-21T15:36:44.203Z,1.50
2022-10-21T15:39:11.898Z,1.40
2022-10-21T15:41:39.440Z,1.30
2022-10-21T15:44:22.652Z,1.60
2022-10-21T15:46:50.449Z,1.30
2022-10-21T15:49:23.524Z,1.48
2022-10-21T15:51:51.159Z,1.30
2022-10-21T15:54:19.604Z,1.50
2022-10-21T15:56:54.475Z,1.48
2022-10-21T15:59:24.892Z,1.48
2022-10-21T16:01:52.502Z,1.30
2022-10-21T16:04:19.996Z,1.30
2022-10-21T16:06:48.816Z,1.73
2022-10-21T16:09:26.068Z,1.80
2022-10-21T16:12:00.030Z,1.55
2022-10-21T16:14:30.143Z,1.88
2022-10-21T16:16:58.811Z,1.60
2022-10-21T16:19:26.108Z,1.80
2022-10-21T16:21:52.895Z,1.63
2022-10-21T16:24:19.637Z,1.88
2022-10-21T16:26:49.364Z,2.47
2022-10-21T16:29:25.436Z,2.50
2022-10-21T16:31:53.006Z,2.50
2022-10-21T16:34:20.346Z,3.03
2022-10-21T16:36:47.399Z,3.33
2022-10-21T16:39:24.620Z,3.80
2022-10-21T16:41:51.915Z,4.50
2022-10-21T16:44:18.988Z,4.95
2022-10-21T16:46:55.036Z,9.15
2022-10-21T16:49:27.174Z,10.30
2022-10-21T16:51:54.711Z,10.13
2022-10-21T16:54:23.610Z,11.25
2022-10-21T16:56:53.303Z,12.02
2022-10-21T16:59:22.113Z,15.82
2022-10-21T17:01:48.890Z,17.02
2022-10-21T17:04:15.710Z,20.38
2022-10-21T17:06:42.503Z,18.45
2022-10-21T17:09:09.447Z,22.08
2022-10-21T17:11:39.068Z,20.27
2022-10-21T17:14:09.279Z,17.35
2022-10-21T17:16:36.044Z,15.68
2022-10-21T17:19:03.338Z,14.43
2022-10-21T17:21:32.841Z,13.15
2022-10-21T17:24:02.929Z,9.95
2022-10-21T17:26:30.799Z,10.35
2022-10-21T17:28:58.121Z,8.77
2022-10-21T17:31:29.037Z,8.93
2022-10-21T17:34:06.233Z,9.30
2022-10-21T17:36:34.772Z,6.32
2022-10-21T17:39:02.887Z,7.70
2022-10-21T17:41:29.621Z,8.07
2022-10-21T17:43:56.460Z,7.03
2022-10-21T17:46:25.535Z,7.80
2022-10-21T17:48:56.364Z,5.78
2022-10-21T17:51:25.123Z,4.00
2022-10-21T17:53:54.125Z,3.50
2022-10-21T17:56:21.923Z,3.90
2022-10-21T17:58:55.395Z,3.53
2022-10-21T18:01:25.212Z,3.70
2022-10-21T18:03:53.685Z,3.85
2022-10-21T18:06:21.359Z,3.35
2022-10-21T18:08:48.495Z,3.22
2022-10-21T18:11:18.808Z,3.70
2022-10-21T18:13:46.594Z,3.05
2022-10-21T18:16:18.010Z,3.30
2022-10-21T18:18:46.343Z,3.63
2022-10-21T18:21:23.004Z,3.30
2022-10-21T18:23:52.825Z,3.15
2022-10-21T18:26:26.968Z,3.90
2022-10-21T18:29:00.947Z,3.80
2022-10-21T18:31:31.766Z,4.35
2022-10-21T18:34:00.634Z,3.75
2022-10-21T18:36:27.977Z,4.07
2022-10-21T18:38:55.072Z,3.92
2022-10-21T18:41:22.201Z,3.95
2022-10-21T18:44:00.230Z,4.03
2022-10-21T18:46:28.947Z,5.13
2022-10-21T18:48:55.821Z,5.35
2022-10-21T18:51:23.860Z,5.50
2022-10-21T18:53:53.063Z,6.07
2022-10-21T18:56:22.479Z,4.85
2022-10-21T18:58:50.572Z,5.10
2022-10-21T19:01:20.373Z,4.93
2022-10-21T19:03:50.593Z,4.43
2022-10-21T19:06:38.668Z,4.20
2022-10-21T19:09:15.370Z,3.80
2022-10-21T19:11:43.753Z,4.10
2022-10-21T19:14:14.006Z,4.07
2022-10-21T19:16:42.334Z,3.67
2022-10-21T19:19:09.687Z,4.15
2022-10-21T19:21:36.642Z,4.22
2022-10-21T19:24:03.887Z,3.53
2022-10-21T19:26:33.627Z,3.78
2022-10-21T19:29:10.219Z,3.67
2022-10-21T19:31:38.555Z,3.95
2022-10-21T19:34:07.484Z,3.85
2022-10-21T19:36:34.767Z,4.15
2022-10-21T19:39:01.624Z,3.47
2022-10-21T19:41:28.491Z,3.60
2022-10-21T19:43:59.465Z,3.40
2022-10-21T19:46:30.054Z,3.65
2022-10-21T19:48:57.540Z,3.45
2022-10-21T19:51:26.007Z,3.40
2022-10-21T19:53:54.492Z,3.63
2022-10-21T19:56:26.962Z,3.50
2022-10-21T19:58:55.739Z,4.05
2022-10-21T20:01:26.091Z,3.30
2022-10-21T20:03:54.458Z,3.63
2022-10-21T20:06:25.779Z,4.25
2022-10-21T20:08:59.132Z,3.10
2022-10-21T20:11:27.310Z,2.90
2022-10-21T20:13:54.889Z,2.85
2022-10-21T20:16:41.752Z,2.80
2022-10-21T20:19:10.982Z,3.15
2022-10-21T20:21:38.245Z,3.05
2022-10-21T20:24:05.654Z,2.97
2022-10-21T20:26:32.562Z,2.80
2022-10-21T20:29:01.773Z,2.70
2022-10-21T20:31:29.564Z,3.00
2022-10-21T20:33:56.520Z,2.90
2022-10-21T20:36:34.911Z,3.15
2022-10-21T20:39:03.252Z,2.95
2022-10-21T20:41:35.860Z,3.20
2022-10-21T20:44:05.770Z,3.10
2022-10-21T20:46:35.053Z,2.90
2022-10-21T20:49:05.645Z,3.33
2022-10-21T20:51:34.076Z,3.55
2022-10-21T20:54:08.354Z,3.45
2022-10-21T20:56:38.525Z,3.72
2022-10-21T20:59:07.826Z,3.60
2022-10-21T21:01:42.049Z,3.78
2022-10-21T21:04:12.776Z,3.97
2022-10-21T21:06:43.729Z,3.90
2022-10-21T21:14:29.981Z,3.50
2022-10-21T21:16:56.986Z,3.40
2022-10-21T21:19:24.160Z,3.80
2022-10-21T21:21:51.181Z,3.10
2022-10-21T21:24:17.930Z,3.47
2022-10-21T21:26:44.630Z,3.28
2022-10-21T21:29:13.168Z,3.22
2022-10-21T21:31:41.007Z,3.58
2022-10-21T21:34:08.633Z,3.80
2022-10-21T21:36:36.625Z,4.00
2022-10-21T21:39:05.520Z,3.67
2022-10-21T21:41:32.416Z,3.88
2022-10-21T21:43:59.237Z,4.05
2022-10-21T21:46:26.948Z,3.97
2022-10-21T21:49:02.297Z,3.42
2022-10-21T21:51:31.096Z,4.40
2022-10-21T21:53:58.207Z,3.72
2022-10-21T21:56:26.345Z,3.58
2022-10-21T21:58:57.563Z,3.45
2022-10-21T22:01:28.016Z,4.03
2022-10-21T22:03:56.551Z,3.55
2022-10-21T22:06:28.155Z,3.30
2022-10-21T22:08:55.398Z,2.90
2022-10-21T22:11:26.125Z,2.90
2022-10-21T22:13:53.658Z,3.60
2022-10-21T22:16:24.070Z,2.70
2022-10-21T22:18:51.207Z,3.67
2022-10-21T22:21:18.866Z,2.72
2022-10-21T22:23:48.539Z,3.00
2022-10-21T22:26:18.571Z,3.33
2022-10-21T22:28:46.775Z,2.97
2022-10-21T22:31:17.704Z,3.30
2022-10-21T22:33:46.197Z,2.95
2022-10-21T22:36:13.060Z,2.67
2022-10-21T22:38:39.870Z,2.70
2022-10-21T22:41:09.913Z,2.90
2022-10-21T22:43:38.903Z,2.90
2022-10-21T22:46:21.656Z,2.83
2022-10-21T22:48:52.391Z,2.58
2022-10-21T22:51:19.194Z,3.08
2022-10-21T22:53:46.832Z,2.45
2022-10-21T22:56:16.161Z,2.80
2022-10-21T22:58:42.910Z,2.72
2022-10-21T23:01:10.079Z,3.08
2022-10-21T23:03:37.199Z,2.55
2022-10-21T23:06:04.373Z,3.25
2022-10-21T23:08:31.208Z,2.80
2022-10-21T23:10:58.799Z,2.30
2022-10-21T23:13:26.084Z,2.85
2022-10-21T23:15:52.814Z,2.53
2022-10-21T23:18:19.575Z,3.20
2022-10-21T23:20:46.359Z,2.50
2022-10-21T23:23:13.171Z,2.55
2022-10-21T23:25:39.907Z,2.80
2022-10-21T23:28:09.666Z,2.42
2022-10-21T23:30:37.914Z,2.70
2022-10-21T23:33:04.996Z,2.88
2022-10-21T23:35:32.637Z,2.88
2022-10-21T23:37:59.584Z,3.45
2022-10-21T23:40:27.876Z,2.80
2022-10-21T23:42:55.063Z,3.15
2022-10-21T23:45:21.825Z,3.13
2022-10-21T23:47:48.620Z,2.75
2022-10-21T23:50:16.145Z,3.60
2022-10-21T23:52:42.904Z,2.92
2022-10-21T23:55:10.262Z,3.10
2022-10-21T23:57:37.534Z,2.85
